Time,TemperatureF,DewpointF,PressureIn,WindDirection,WindDirectionDegrees,WindSpeedMPH,WindSpeedGustMPH,Humidity,HourlyPrecipIn,Conditions,Clouds,dailyrainin,SoftwareType,DateUTC
2013-03-19 00:00:00,40.0,34.9,29.72,ESE,113,2.9,2.9,82,0.00,,,0.43,WUHU216HW,2013-03-19 04:00:00,
2013-03-19 00:05:00,40.0,34.9,29.72,ESE,113,0.0,2.9,82,0.00,,,0.00,WUHU216HW,2013-03-19 04:05:00,
2013-03-19 00:10:00,40.0,35.2,29.72,South,180,0.0,1.3,83,0.00,,,0.00,WUHU216HW,2013-03-19 04:10:00,
2013-03-19 00:15:00,40.1,35.4,29.72,South,180,0.2,1.3,83,0.00,,,0.00,WUHU216HW,2013-03-19 04:15:00,
2013-03-19 00:20:00,40.1,35.4,29.72,SSE,158,0.4,1.3,83,0.00,,,0.00,WUHU216HW,2013-03-19 04:20:00,
2013-03-19 00:25:00,40.1,35.4,29.72,ESE,113,0.0,1.6,83,0.00,,,0.00,WUHU216HW,2013-03-19 04:25:00,
2013-03-19 00:30:00,40.1,35.6,29.71,SE,135,1.1,1.8,84,0.00,,,0.00,WUHU216HW,2013-03-19 04:30:00,
2013-03-19 00:35:00,40.0,35.5,29.72,SSE,158,0.2,1.8,84,0.00,,,0.00,WUHU216HW,2013-03-19 04:35:00,
2013-03-19 00:40:00,40.0,35.5,29.71,ESE,113,1.3,1.8,84,0.00,,,0.00,WUHU216HW,2013-03-19 04:40:00,
2013-03-19 00:45:00,40.0,35.5,29.71,SE,135,0.4,1.8,84,0.00,,,0.00,WUHU216HW,2013-03-19 04:45:00,
2013-03-19 00:50:00,40.0,35.5,29.72,East,90,0.7,1.8,84,0.00,,,0.00,WUHU216HW,2013-03-19 04:50:00,
2013-03-19 00:55:00,40.1,35.6,29.71,ESE,113,0.0,1.8,84,0.00,,,0.00,WUHU216HW,2013-03-19 04:55:00,
2013-03-19 01:00:00,40.1,35.9,29.71,ESE,113,0.0,1.8,85,0.00,,,0.00,WUHU216HW,2013-03-19 05:00:00,
2013-03-19 01:05:00,40.3,36.1,29.71,SE,135,0.9,1.8,85,0.01,,,0.01,WUHU216HW,2013-03-19 05:05:00,
2013-03-19 01:10:00,40.3,36.1,29.71,West,270,0.4,0.9,85,0.01,,,0.01,WUHU216HW,2013-03-19 05:10:00,
2013-03-19 01:15:00,40.3,36.1,29.71,SE,135,1.1,1.1,85,0.01,,,0.01,WUHU216HW,2013-03-19 05:15:00,
2013-03-19 01:20:00,40.3,36.5,29.71,SE,135,0.0,1.1,86,0.02,,,0.02,WUHU216HW,2013-03-19 05:20:00,
2013-03-19 01:25:00,40.7,37.1,29.71,SE,135,0.2,1.1,87,0.02,,,0.02,WUHU216HW,2013-03-19 05:25:00,
2013-03-19 01:30:00,40.7,37.1,29.71,NE,45,0.7,1.1,87,0.02,,,0.02,WUHU216HW,2013-03-19 05:30:00,
2013-03-19 01:35:00,40.7,37.1,29.71,WNW,293,0.0,0.7,87,0.02,,,0.02,WUHU216HW,2013-03-19 05:35:00,
2013-03-19 01:40:00,40.9,37.3,29.71,WNW,293,0.2,0.7,87,0.02,,,0.02,WUHU216HW,2013-03-19 05:40:00,
2013-03-19 01:45:00,41.0,37.5,29.71,SSW,203,0.4,1.6,87,0.02,,,0.02,WUHU216HW,2013-03-19 05:45:00,
2013-03-19 01:50:00,41.0,37.5,29.71,West,270,0.0,1.6,87,0.02,,,0.02,WUHU216HW,2013-03-19 05:50:00,
2013-03-19 01:55:00,41.2,37.6,29.71,West,270,0.0,0.9,87,0.02,,,0.02,WUHU216HW,2013-03-19 05:55:00,
2013-03-19 02:00:00,41.4,37.8,29.72,SW,225,0.4,3.4,87,0.01,,,0.02,WUHU216HW,2013-03-19 06:00:00,
2013-03-19 02:05:00,41.4,38.1,29.72,SSE,158,0.4,3.4,88,0.01,,,0.02,WUHU216HW,2013-03-19 06:05:00,
2013-03-19 02:10:00,41.4,38.1,29.72,West,270,0.2,2.7,88,0.01,,,0.02,WUHU216HW,2013-03-19 06:10:00,
2013-03-19 02:15:00,41.6,38.3,29.72,WNW,293,1.3,2.7,88,0.01,,,0.02,WUHU216HW,2013-03-19 06:15:00,
2013-03-19 02:20:00,41.8,38.4,29.72,West,270,0.0,1.3,88,0.00,,,0.02,WUHU216HW,2013-03-19 06:20:00,
2013-03-19 02:25:00,42.5,39.8,29.73,WSW,248,0.4,1.6,90,0.01,,,0.03,WUHU216HW,2013-03-19 06:25:00,
2013-03-19 02:30:00,42.8,40.7,29.73,WNW,293,4.5,5.4,92,0.01,,,0.03,WUHU216HW,2013-03-19 06:30:00,
2013-03-19 02:35:00,43.0,40.9,29.73,West,270,3.6,6.5,92,0.01,,,0.03,WUHU216HW,2013-03-19 06:35:00,
2013-03-19 02:40:00,43.0,40.9,29.73,WSW,248,0.4,6.5,92,0.01,,,0.03,WUHU216HW,2013-03-19 06:40:00,
2013-03-19 02:45:00,42.8,40.7,29.73,WSW,248,1.1,5.4,92,0.01,,,0.03,WUHU216HW,2013-03-19 06:45:00,
2013-03-19 02:50:00,42.8,40.4,29.73,West,270,1.6,5.4,91,0.01,,,0.03,WUHU216HW,2013-03-19 06:50:00,
2013-03-19 02:55:00,42.8,40.4,29.73,West,270,4.7,5.4,91,0.01,,,0.03,WUHU216HW,2013-03-19 06:55:00,
2013-03-19 03:00:00,42.8,40.1,29.74,West,270,1.3,4.7,90,0.01,,,0.03,WUHU216HW,2013-03-19 07:00:00,
2013-03-19 03:05:00,42.8,39.5,29.74,West,270,1.1,4.7,88,0.01,,,0.03,WUHU216HW,2013-03-19 07:05:00,
2013-03-19 03:10:00,42.7,39.3,29.74,West,270,0.4,4.7,88,0.01,,,0.03,WUHU216HW,2013-03-19 07:10:00,
2013-03-19 03:15:00,42.7,39.1,29.74,West,270,0.0,2.7,87,0.01,,,0.03,WUHU216HW,2013-03-19 07:15:00,
2013-03-19 03:20:00,42.5,38.9,29.74,West,270,1.3,2.5,87,0.00,,,0.03,WUHU216HW,2013-03-19 07:20:00,
2013-03-19 03:25:00,42.5,38.9,29.74,NW,315,0.4,5.6,87,0.00,,,0.03,WUHU216HW,2013-03-19 07:25:00,
2013-03-19 03:30:00,42.3,38.3,29.75,West,270,2.0,5.6,86,0.00,,,0.03,WUHU216HW,2013-03-19 07:30:00,
2013-03-19 03:35:00,42.3,38.3,29.74,NNW,338,2.9,4.9,86,0.00,,,0.03,WUHU216HW,2013-03-19 07:35:00,
2013-03-19 03:40:00,42.1,38.2,29.74,WNW,293,3.4,3.4,86,0.00,,,0.03,WUHU216HW,2013-03-19 07:40:00,
2013-03-19 03:45:00,42.1,38.2,29.75,WNW,293,0.4,3.4,86,0.00,,,0.03,WUHU216HW,2013-03-19 07:45:00,
2013-03-19 03:50:00,41.9,38.0,29.75,WSW,248,2.5,4.9,86,0.00,,,0.03,WUHU216HW,2013-03-19 07:50:00,
2013-03-19 03:55:00,41.8,37.8,29.75,West,270,4.9,4.9,86,0.00,,,0.03,WUHU216HW,2013-03-19 07:55:00,
2013-03-19 04:00:00,41.6,37.6,29.75,WSW,248,2.0,4.9,86,0.00,,,0.03,WUHU216HW,2013-03-19 08:00:00,
2013-03-19 04:05:00,41.4,37.4,29.76,West,270,2.0,6.3,86,0.00,,,0.03,WUHU216HW,2013-03-19 08:05:00,
2013-03-19 04:10:00,41.0,37.5,29.76,NW,315,2.7,6.9,87,0.00,,,0.03,WUHU216HW,2013-03-19 08:10:00,
2013-03-19 04:15:00,40.7,37.1,29.76,SW,225,2.5,6.9,87,0.00,,,0.03,WUHU216HW,2013-03-19 08:15:00,
2013-03-19 04:20:00,40.3,37.0,29.77,NNW,338,1.3,4.7,88,0.00,,,0.03,WUHU216HW,2013-03-19 08:20:00,
2013-03-19 04:25:00,40.0,36.4,29.77,WSW,248,2.5,7.6,87,0.00,,,0.03,WUHU216HW,2013-03-19 08:25:00,
2013-03-19 04:30:00,39.6,36.0,29.78,NW,315,1.8,7.6,87,0.00,,,0.03,WUHU216HW,2013-03-19 08:30:00,
2013-03-19 04:35:00,39.1,35.5,29.78,WNW,293,1.8,7.2,87,0.00,,,0.03,WUHU216HW,2013-03-19 08:35:00,
2013-03-19 04:40:00,38.5,34.9,29.78,WNW,293,1.8,4.0,87,0.01,,,0.04,WUHU216HW,2013-03-19 08:40:00,
2013-03-19 04:45:00,38.2,34.6,29.78,West,270,1.3,4.9,87,0.01,,,0.04,WUHU216HW,2013-03-19 08:45:00,
2013-03-19 04:50:00,38.0,34.4,29.78,WNW,293,1.3,4.9,87,0.01,,,0.04,WUHU216HW,2013-03-19 08:50:00,
2013-03-19 04:55:00,37.8,34.2,29.79,NW,315,2.9,4.9,87,0.01,,,0.04,WUHU216HW,2013-03-19 08:55:00,
2013-03-19 05:00:00,37.6,34.0,29.79,West,270,1.3,6.0,87,0.01,,,0.04,WUHU216HW,2013-03-19 09:00:00,
2013-03-19 05:05:00,37.4,33.8,29.79,WNW,293,0.4,6.0,87,0.01,,,0.04,WUHU216HW,2013-03-19 09:05:00,
2013-03-19 05:10:00,37.4,33.8,29.80,WNW,293,1.3,4.7,87,0.01,,,0.04,WUHU216HW,2013-03-19 09:10:00,
2013-03-19 05:15:00,37.4,33.8,29.80,WNW,293,0.0,1.3,87,0.01,,,0.04,WUHU216HW,2013-03-19 09:15:00,
2013-03-19 05:20:00,37.3,33.7,29.81,WNW,293,2.5,2.5,87,0.01,,,0.04,WUHU216HW,2013-03-19 09:20:00,
2013-03-19 05:25:00,37.3,33.7,29.81,NE,45,0.4,2.5,87,0.01,,,0.04,WUHU216HW,2013-03-19 09:25:00,
2013-03-19 05:31:00,37.3,33.7,29.81,West,270,0.4,3.8,87,0.01,,,0.04,WUHU216HW,2013-03-19 09:31:00,
2013-03-19 05:36:00,37.3,33.7,29.81,WSW,248,1.1,3.8,87,0.01,,,0.04,WUHU216HW,2013-03-19 09:36:00,
2013-03-19 05:41:00,37.3,33.4,29.81,West,270,0.4,2.7,86,0.00,,,0.04,WUHU216HW,2013-03-19 09:41:00,
2013-03-19 05:46:00,37.3,33.4,29.81,WNW,293,0.0,2.7,86,0.00,,,0.04,WUHU216HW,2013-03-19 09:46:00,
2013-03-19 05:51:00,37.4,33.3,29.82,West,270,0.0,1.6,85,0.00,,,0.04,WUHU216HW,2013-03-19 09:51:00,
2013-03-19 05:56:00,37.4,33.3,29.82,SW,225,0.7,1.8,85,0.00,,,0.04,WUHU216HW,2013-03-19 09:56:00,
2013-03-19 06:01:00,37.4,33.3,29.82,West,270,1.3,2.5,85,0.00,,,0.04,WUHU216HW,2013-03-19 10:01:00,
2013-03-19 06:06:00,37.4,33.0,29.82,WSW,248,0.2,2.5,84,0.00,,,0.04,WUHU216HW,2013-03-19 10:06:00,
2013-03-19 06:11:00,37.4,32.8,29.82,West,270,2.5,2.5,83,0.00,,,0.04,WUHU216HW,2013-03-19 10:11:00,
2013-03-19 06:16:00,37.4,33.0,29.82,WSW,248,0.9,2.5,84,0.00,,,0.04,WUHU216HW,2013-03-19 10:16:00,
2013-03-19 06:21:00,37.4,32.8,29.83,WSW,248,1.1,4.7,83,0.00,,,0.04,WUHU216HW,2013-03-19 10:21:00,
2013-03-19 06:26:00,37.4,32.8,29.82,SW,225,0.7,4.7,83,0.00,,,0.04,WUHU216HW,2013-03-19 10:26:00,
2013-03-19 06:31:00,37.4,32.8,29.82,WSW,248,0.4,3.1,83,0.00,,,0.04,WUHU216HW,2013-03-19 10:31:00,
2013-03-19 06:36:00,37.4,32.8,29.83,SW,225,0.2,3.1,83,0.00,,,0.04,WUHU216HW,2013-03-19 10:36:00,
2013-03-19 06:41:00,37.1,32.4,29.83,WSW,248,4.0,4.7,83,0.00,,,0.04,WUHU216HW,2013-03-19 10:41:00,
2013-03-19 06:46:00,36.5,31.9,29.83,WSW,248,2.5,6.5,83,0.00,,,0.04,WUHU216HW,2013-03-19 10:46:00,
2013-03-19 06:51:00,36.4,32.0,29.84,WSW,248,1.1,6.5,84,0.00,,,0.04,WUHU216HW,2013-03-19 10:51:00,
2013-03-19 06:56:00,36.2,31.8,29.84,WSW,248,1.1,4.0,84,0.00,,,0.04,WUHU216HW,2013-03-19 10:56:00,
2013-03-19 07:01:00,36.0,31.6,29.84,West,270,1.6,3.4,84,0.00,,,0.04,WUHU216HW,2013-03-19 11:01:00,
2013-03-19 07:06:00,36.0,31.6,29.84,West,270,1.3,3.4,84,0.00,,,0.04,WUHU216HW,2013-03-19 11:06:00,
2013-03-19 07:11:00,36.0,31.6,29.84,WSW,248,0.0,3.1,84,0.00,,,0.04,WUHU216HW,2013-03-19 11:11:00,
2013-03-19 07:16:00,35.8,31.2,29.84,WSW,248,2.2,2.5,83,0.00,,,0.04,WUHU216HW,2013-03-19 11:16:00,
2013-03-19 07:21:00,36.0,31.3,29.84,SW,225,0.0,2.2,83,0.00,,,0.04,WUHU216HW,2013-03-19 11:21:00,
2013-03-19 07:26:00,36.0,31.6,29.84,West,270,2.2,2.2,84,0.00,,,0.04,WUHU216HW,2013-03-19 11:26:00,
2013-03-19 07:31:00,35.8,31.4,29.84,WSW,248,0.2,2.2,84,0.00,,,0.04,WUHU216HW,2013-03-19 11:31:00,
2013-03-19 07:36:00,35.8,31.4,29.84,SW,225,0.2,2.2,84,0.00,,,0.04,WUHU216HW,2013-03-19 11:36:00,
2013-03-19 07:41:00,35.8,31.4,29.84,SSW,203,0.4,2.0,84,0.00,,,0.04,WUHU216HW,2013-03-19 11:41:00,
2013-03-19 07:46:00,35.8,31.4,29.83,West,270,1.1,2.0,84,0.00,,,0.04,WUHU216HW,2013-03-19 11:46:00,
2013-03-19 07:51:00,35.8,31.4,29.83,SW,225,0.9,1.8,84,0.00,,,0.04,WUHU216HW,2013-03-19 11:51:00,
2013-03-19 07:56:00,35.8,31.4,29.83,WNW,293,0.4,2.5,84,0.00,,,0.04,WUHU216HW,2013-03-19 11:56:00,
2013-03-19 08:01:00,35.8,31.4,29.83,SSW,203,0.7,2.5,84,0.00,,,0.04,WUHU216HW,2013-03-19 12:01:00,
2013-03-19 08:06:00,35.8,31.4,29.83,SSW,203,0.7,2.5,84,0.00,,,0.04,WUHU216HW,2013-03-19 12:06:00,
2013-03-19 08:11:00,35.8,31.4,29.83,SSW,203,1.1,2.7,84,0.00,,,0.04,WUHU216HW,2013-03-19 12:11:00,
2013-03-19 08:16:00,36.0,31.6,29.82,SSW,203,0.4,2.7,84,0.00,,,0.04,WUHU216HW,2013-03-19 12:16:00,
2013-03-19 08:21:00,36.2,31.5,29.82,West,270,3.4,5.4,83,0.00,,,0.04,WUHU216HW,2013-03-19 12:21:00,
2013-03-19 08:26:00,36.4,31.3,29.82,South,180,0.4,5.4,82,0.00,,,0.04,WUHU216HW,2013-03-19 12:26:00,
2013-03-19 08:32:00,36.7,31.4,29.82,WSW,248,1.8,4.7,81,0.00,,,0.04,WUHU216HW,2013-03-19 12:32:00,
2013-03-19 08:37:00,37.1,30.5,29.82,West,270,3.8,4.7,77,0.00,,,0.04,WUHU216HW,2013-03-19 12:37:00,
2013-03-19 08:42:00,37.1,30.5,29.82,WSW,248,1.8,6.3,77,0.00,,,0.04,WUHU216HW,2013-03-19 12:42:00,
2013-03-19 08:47:00,37.3,30.4,29.81,WSW,248,2.2,6.3,76,0.00,,,0.04,WUHU216HW,2013-03-19 12:47:00,
2013-03-19 08:52:00,37.6,30.8,29.81,WSW,248,4.7,5.8,76,0.00,,,0.04,WUHU216HW,2013-03-19 12:52:00,
2013-03-19 08:57:00,37.8,30.9,29.81,South,180,2.5,6.7,76,0.00,,,0.04,WUHU216HW,2013-03-19 12:57:00,
2013-03-19 09:02:00,38.2,30.6,29.81,North,0,4.5,6.7,74,0.00,,,0.04,WUHU216HW,2013-03-19 13:02:00,
2013-03-19 09:07:00,38.3,30.8,29.81,West,270,3.1,6.3,74,0.00,,,0.04,WUHU216HW,2013-03-19 13:07:00,
2013-03-19 09:12:00,38.5,31.0,29.81,West,270,1.6,7.6,74,0.00,,,0.04,WUHU216HW,2013-03-19 13:12:00,
2013-03-19 09:17:00,38.5,30.6,29.80,SW,225,2.5,7.6,73,0.00,,,0.04,WUHU216HW,2013-03-19 13:17:00,
2013-03-19 09:22:00,38.5,31.0,29.80,WSW,248,4.0,5.1,74,0.00,,,0.04,WUHU216HW,2013-03-19 13:22:00,
2013-03-19 09:27:00,38.5,31.0,29.80,SW,225,4.0,4.7,74,0.00,,,0.04,WUHU216HW,2013-03-19 13:27:00,
2013-03-19 09:32:00,38.7,30.8,29.80,SW,225,3.1,6.3,73,0.00,,,0.04,WUHU216HW,2013-03-19 13:32:00,
2013-03-19 09:37:00,39.2,29.9,29.80,WSW,248,1.6,6.3,69,0.00,,,0.04,WUHU216HW,2013-03-19 13:37:00,
2013-03-19 09:42:00,39.6,30.6,29.80,SSW,203,3.6,9.6,70,0.00,,,0.04,WUHU216HW,2013-03-19 13:42:00,
2013-03-19 09:47:00,40.1,30.8,29.80,WSW,248,3.8,9.6,69,0.00,,,0.04,WUHU216HW,2013-03-19 13:47:00,
2013-03-19 09:52:00,40.0,30.3,29.80,NNW,338,4.5,6.5,68,0.00,,,0.04,WUHU216HW,2013-03-19 13:52:00,
2013-03-19 09:57:00,40.0,30.6,29.80,WSW,248,3.1,5.8,69,0.00,,,0.04,WUHU216HW,2013-03-19 13:57:00,
2013-03-19 10:02:00,40.0,30.6,29.80,West,270,2.2,6.3,69,0.00,,,0.04,WUHU216HW,2013-03-19 14:02:00,
2013-03-19 10:07:00,40.1,30.8,29.80,South,180,7.6,7.8,69,0.00,,,0.04,WUHU216HW,2013-03-19 14:07:00,
2013-03-19 10:12:00,40.3,30.2,29.79,SW,225,5.4,8.1,67,0.00,,,0.04,WUHU216HW,2013-03-19 14:12:00,
2013-03-19 10:17:00,40.3,29.8,29.79,WNW,293,3.8,8.1,66,0.00,,,0.04,WUHU216HW,2013-03-19 14:17:00,
2013-03-19 10:22:00,40.1,30.0,29.79,WSW,248,2.0,8.1,67,0.00,,,0.04,WUHU216HW,2013-03-19 14:22:00,
2013-03-19 10:27:00,40.0,29.4,29.80,WSW,248,2.2,8.1,66,0.00,,,0.04,WUHU216HW,2013-03-19 14:27:00,
2013-03-19 10:32:00,40.0,29.4,29.79,WSW,248,3.4,6.0,66,0.00,,,0.04,WUHU216HW,2013-03-19 14:32:00,
2013-03-19 10:38:00,40.0,30.3,29.79,WSW,248,3.6,8.9,68,0.00,,,0.04,WUHU216HW,2013-03-19 14:38:00,
2013-03-19 10:43:00,40.1,30.0,29.78,SW,225,2.7,8.9,67,0.00,,,0.04,WUHU216HW,2013-03-19 14:43:00,
2013-03-19 10:48:00,41.0,30.9,29.78,SW,225,2.5,5.4,67,0.00,,,0.04,WUHU216HW,2013-03-19 14:48:00,
2013-03-19 10:52:00,41.6,30.7,29.78,WSW,248,2.5,6.0,65,0.00,,,0.04,WUHU216HW,2013-03-19 14:52:00,
2013-03-19 10:58:00,42.1,30.4,29.78,WSW,248,1.1,6.0,63,0.00,,,0.04,WUHU216HW,2013-03-19 14:58:00,
2013-03-19 11:03:00,42.3,30.2,29.78,WSW,248,3.4,4.3,62,0.00,,,0.04,WUHU216HW,2013-03-19 15:03:00,
2013-03-19 11:08:00,42.5,29.5,29.78,WNW,293,3.8,8.9,60,0.00,,,0.04,WUHU216HW,2013-03-19 15:08:00,
2013-03-19 11:13:00,42.5,28.7,29.78,West,270,2.7,8.9,58,0.00,,,0.04,WUHU216HW,2013-03-19 15:13:00,
2013-03-19 11:18:00,42.8,28.6,29.78,WNW,293,3.6,7.2,57,0.00,,,0.04,WUHU216HW,2013-03-19 15:18:00,
2013-03-19 11:23:00,43.2,28.5,29.78,WNW,293,2.5,7.2,56,0.00,,,0.04,WUHU216HW,2013-03-19 15:23:00,
2013-03-19 11:28:00,43.2,28.1,29.78,SW,225,3.8,7.2,55,0.00,,,0.04,WUHU216HW,2013-03-19 15:28:00,
2013-03-19 11:33:00,43.2,26.7,29.78,West,270,3.4,10.5,52,0.00,,,0.04,WUHU216HW,2013-03-19 15:33:00,
2013-03-19 11:38:00,43.6,26.2,29.77,West,270,2.2,10.5,50,0.00,,,0.04,WUHU216HW,2013-03-19 15:38:00,
2013-03-19 11:43:00,44.1,27.5,29.77,SW,225,4.0,7.6,52,0.00,,,0.04,WUHU216HW,2013-03-19 15:43:00,
2013-03-19 11:48:00,45.0,27.0,29.78,SW,225,6.7,9.2,49,0.00,,,0.04,WUHU216HW,2013-03-19 15:48:00,
2013-03-19 11:53:00,45.0,27.0,29.77,WSW,248,6.3,9.4,49,0.00,,,0.04,WUHU216HW,2013-03-19 15:53:00,
2013-03-19 11:58:00,45.0,28.0,29.77,WSW,248,4.3,9.4,51,0.00,,,0.04,WUHU216HW,2013-03-19 15:58:00,
2013-03-19 12:03:00,45.7,28.2,29.78,WSW,248,2.5,10.5,50,0.00,,,0.04,WUHU216HW,2013-03-19 16:03:00,
2013-03-19 12:08:00,45.5,27.5,29.78,West,270,7.6,10.5,49,0.00,,,0.04,WUHU216HW,2013-03-19 16:08:00,
2013-03-19 12:13:00,44.8,26.8,29.78,SSW,203,3.4,7.6,49,0.00,,,0.04,WUHU216HW,2013-03-19 16:13:00,
2013-03-19 12:18:00,43.7,26.8,29.78,North,0,4.0,7.6,51,0.00,,,0.04,WUHU216HW,2013-03-19 16:18:00,
2013-03-19 12:23:00,43.0,26.2,29.78,NNW,338,3.6,4.3,51,0.00,,,0.04,WUHU216HW,2013-03-19 16:23:00,
2013-03-19 12:28:00,43.4,26.9,29.78,WNW,293,4.3,6.9,52,0.00,,,0.04,WUHU216HW,2013-03-19 16:28:00,
2013-03-19 12:33:00,44.5,27.5,29.78,WSW,248,4.5,6.9,51,0.00,,,0.04,WUHU216HW,2013-03-19 16:33:00,
2013-03-19 12:38:00,45.0,26.5,29.78,WSW,248,4.0,6.3,48,0.00,,,0.04,WUHU216HW,2013-03-19 16:38:00,
2013-03-19 12:43:00,45.5,26.9,29.78,West,270,2.5,8.5,48,0.00,,,0.04,WUHU216HW,2013-03-19 16:43:00,
2013-03-19 12:48:00,46.8,27.0,29.77,NW,315,0.9,8.7,46,0.00,,,0.04,WUHU216HW,2013-03-19 16:48:00,
2013-03-19 12:53:00,46.6,25.8,29.78,West,270,1.8,8.7,44,0.00,,,0.04,WUHU216HW,2013-03-19 16:53:00,
2013-03-19 12:58:00,45.4,24.0,29.78,WNW,293,5.6,6.3,43,0.00,,,0.04,WUHU216HW,2013-03-19 16:58:00,
2013-03-19 13:03:00,44.3,23.6,29.78,WSW,248,2.9,6.7,44,0.00,,,0.04,WUHU216HW,2013-03-19 17:03:00,
2013-03-19 13:08:00,44.3,23.0,29.78,ENE,68,4.0,11.9,43,0.00,,,0.04,WUHU216HW,2013-03-19 17:08:00,
2013-03-19 13:13:00,44.3,23.6,29.78,SSW,203,4.9,11.9,44,0.00,,,0.04,WUHU216HW,2013-03-19 17:13:00,
2013-03-19 13:18:00,43.7,23.1,29.79,WSW,248,5.4,13.6,44,0.00,,,0.04,WUHU216HW,2013-03-19 17:18:00,
2013-03-19 13:23:00,43.7,23.7,29.79,SW,225,3.4,13.6,45,0.00,,,0.04,WUHU216HW,2013-03-19 17:23:00,
2013-03-19 13:28:00,44.3,25.2,29.79,East,90,2.7,8.5,47,0.00,,,0.04,WUHU216HW,2013-03-19 17:28:00,
2013-03-19 13:33:00,44.6,25.0,29.79,NW,315,2.5,6.9,46,0.00,,,0.04,WUHU216HW,2013-03-19 17:33:00,
2013-03-19 13:38:00,44.8,23.1,29.80,WSW,248,7.6,7.6,42,0.00,,,0.04,WUHU216HW,2013-03-19 17:38:00,
2013-03-19 13:43:00,44.6,22.9,29.80,WSW,248,5.1,7.8,42,0.00,,,0.04,WUHU216HW,2013-03-19 17:43:00,
2013-03-19 13:48:00,43.4,21.2,29.80,West,270,6.9,16.3,41,0.00,,,0.04,WUHU216HW,2013-03-19 17:48:00,
2013-03-19 13:53:00,43.6,20.2,29.80,WSW,248,2.2,16.3,39,0.00,,,0.04,WUHU216HW,2013-03-19 17:53:00,
2013-03-19 13:58:00,43.0,18.4,29.80,NW,315,7.4,13.0,37,0.00,,,0.04,WUHU216HW,2013-03-19 17:58:00,
2013-03-19 14:03:00,42.5,18.6,29.80,West,270,1.8,13.4,38,0.00,,,0.04,WUHU216HW,2013-03-19 18:03:00,
2013-03-19 14:08:00,42.7,19.4,29.81,West,270,2.9,13.4,39,0.00,,,0.04,WUHU216HW,2013-03-19 18:08:00,
2013-03-19 14:13:00,42.8,18.2,29.81,WSW,248,2.9,8.9,37,0.00,,,0.04,WUHU216HW,2013-03-19 18:13:00,
2013-03-19 14:18:00,42.8,20.2,29.81,West,270,4.0,8.9,40,0.00,,,0.04,WUHU216HW,2013-03-19 18:18:00,
2013-03-19 14:23:00,43.2,19.8,29.81,WSW,248,5.4,9.8,39,0.00,,,0.04,WUHU216HW,2013-03-19 18:23:00,
2013-03-19 14:28:00,43.2,19.8,29.81,NW,315,3.4,11.4,39,0.00,,,0.04,WUHU216HW,2013-03-19 18:28:00,
2013-03-19 14:33:00,42.5,19.8,29.81,WNW,293,8.5,11.4,40,0.00,,,0.04,WUHU216HW,2013-03-19 18:33:00,
2013-03-19 14:38:00,42.3,19.7,29.81,West,270,4.3,14.3,40,0.00,,,0.04,WUHU216HW,2013-03-19 18:38:00,
2013-03-19 14:43:00,42.5,20.3,29.81,NW,315,4.7,14.3,41,0.00,,,0.04,WUHU216HW,2013-03-19 18:43:00,
2013-03-19 14:48:00,42.5,19.2,29.81,WNW,293,5.6,13.6,39,0.00,,,0.04,WUHU216HW,2013-03-19 18:48:00,
2013-03-19 14:53:00,41.8,20.3,29.81,West,270,4.9,13.6,42,0.00,,,0.04,WUHU216HW,2013-03-19 18:53:00,
2013-03-19 14:58:00,41.8,20.8,29.81,West,270,5.1,11.9,43,0.00,,,0.04,WUHU216HW,2013-03-19 18:58:00,
2013-03-19 15:03:00,42.1,21.2,29.81,SW,225,5.1,11.9,43,0.00,,,0.04,WUHU216HW,2013-03-19 19:03:00,
2013-03-19 15:08:00,41.6,21.2,29.82,WSW,248,2.9,7.8,44,0.00,,,0.04,WUHU216HW,2013-03-19 19:08:00,
2013-03-19 15:13:00,41.4,20.4,29.82,SW,225,3.6,8.5,43,0.00,,,0.04,WUHU216HW,2013-03-19 19:13:00,
2013-03-19 15:18:00,41.9,21.0,29.83,South,180,3.1,8.5,43,0.00,,,0.04,WUHU216HW,2013-03-19 19:18:00,
2013-03-19 15:23:00,42.5,20.9,29.83,NW,315,11.4,11.4,42,0.00,,,0.04,WUHU216HW,2013-03-19 19:23:00,
2013-03-19 15:28:00,41.4,19.9,29.83,SW,225,2.0,11.4,42,0.00,,,0.04,WUHU216HW,2013-03-19 19:28:00,
2013-03-19 15:33:00,40.0,19.6,29.83,WNW,293,5.6,11.4,44,0.00,,,0.04,WUHU216HW,2013-03-19 19:33:00,
2013-03-19 15:38:00,40.0,19.6,29.84,WNW,293,4.0,11.4,44,0.00,,,0.04,WUHU216HW,2013-03-19 19:38:00,
2013-03-19 15:43:00,38.9,19.2,29.84,West,270,12.5,16.3,45,0.00,,,0.04,WUHU216HW,2013-03-19 19:43:00,
2013-03-19 15:48:00,38.9,19.2,29.84,NNW,338,2.5,16.3,45,0.00,,,0.04,WUHU216HW,2013-03-19 19:48:00,
2013-03-19 15:53:00,39.2,19.5,29.85,North,0,4.0,12.8,45,0.00,,,0.04,WUHU216HW,2013-03-19 19:53:00,
2013-03-19 15:58:00,38.9,19.2,29.85,South,180,2.0,10.3,45,0.00,,,0.04,WUHU216HW,2013-03-19 19:58:00,
2013-03-19 16:03:00,38.3,18.7,29.85,WNW,293,6.9,10.7,45,0.00,,,0.04,WUHU216HW,2013-03-19 20:03:00,
2013-03-19 16:08:00,38.7,19.1,29.86,WSW,248,7.8,10.7,45,0.00,,,0.04,WUHU216HW,2013-03-19 20:08:00,
2013-03-19 16:13:00,38.9,19.2,29.86,West,270,5.8,10.7,45,0.00,,,0.04,WUHU216HW,2013-03-19 20:13:00,
2013-03-19 16:18:00,38.5,18.9,29.86,WSW,248,1.3,7.8,45,0.00,,,0.04,WUHU216HW,2013-03-19 20:18:00,
2013-03-19 16:23:00,38.5,18.9,29.86,West,270,1.1,9.8,45,0.00,,,0.04,WUHU216HW,2013-03-19 20:23:00,
2013-03-19 16:28:00,39.1,19.4,29.86,NW,315,1.3,9.8,45,0.00,,,0.04,WUHU216HW,2013-03-19 20:28:00,
2013-03-19 16:33:00,38.9,19.2,29.87,WSW,248,4.7,8.5,45,0.00,,,0.04,WUHU216HW,2013-03-19 20:33:00,
2013-03-19 16:38:00,38.9,18.7,29.86,West,270,2.2,8.9,44,0.00,,,0.04,WUHU216HW,2013-03-19 20:38:00,
2013-03-19 16:43:00,38.5,18.9,29.87,WSW,248,1.1,8.9,45,0.00,,,0.04,WUHU216HW,2013-03-19 20:43:00,
2013-03-19 16:48:00,37.8,18.3,29.87,WSW,248,1.3,7.6,45,0.00,,,0.04,WUHU216HW,2013-03-19 20:48:00,
2013-03-19 16:53:00,37.3,18.3,29.88,SW,225,2.9,12.3,46,0.00,,,0.04,WUHU216HW,2013-03-19 20:53:00,
2013-03-19 16:58:00,37.1,18.6,29.88,WSW,248,2.5,13.6,47,0.00,,,0.04,WUHU216HW,2013-03-19 20:58:00,
2013-03-19 17:03:00,37.1,19.2,29.88,WNW,293,4.7,13.6,48,0.00,,,0.04,WUHU216HW,2013-03-19 21:03:00,
2013-03-19 17:08:00,37.1,19.7,29.88,NW,315,0.9,10.5,49,0.00,,,0.04,WUHU216HW,2013-03-19 21:08:00,
2013-03-19 17:13:00,36.5,20.2,29.89,SW,225,3.4,11.9,51,0.00,,,0.04,WUHU216HW,2013-03-19 21:13:00,
2013-03-19 17:18:00,36.4,20.4,29.89,West,270,6.3,11.9,52,0.00,,,0.04,WUHU216HW,2013-03-19 21:18:00,
2013-03-19 17:23:00,36.4,20.9,29.89,NNW,338,1.1,13.0,53,0.00,,,0.04,WUHU216HW,2013-03-19 21:23:00,
2013-03-19 17:28:00,36.2,22.0,29.89,West,270,4.0,13.0,56,0.00,,,0.04,WUHU216HW,2013-03-19 21:28:00,
2013-03-19 17:33:00,36.0,21.4,29.89,NW,315,9.8,9.8,55,0.00,,,0.04,WUHU216HW,2013-03-19 21:33:00,
2013-03-19 17:38:00,36.0,21.0,29.89,West,270,5.4,10.7,54,0.00,,,0.04,WUHU216HW,2013-03-19 21:38:00,
2013-03-19 17:43:00,36.0,20.5,29.89,WNW,293,3.4,10.7,53,0.00,,,0.04,WUHU216HW,2013-03-19 21:43:00,
2013-03-19 17:48:00,36.0,21.0,29.90,West,270,4.0,8.1,54,0.00,,,0.04,WUHU216HW,2013-03-19 21:48:00,
2013-03-19 17:53:00,36.0,21.4,29.90,SW,225,5.8,8.7,55,0.00,,,0.04,WUHU216HW,2013-03-19 21:53:00,
2013-03-19 17:58:00,35.6,21.1,29.90,NW,315,6.9,11.2,55,0.00,,,0.04,WUHU216HW,2013-03-19 21:58:00,
2013-03-19 18:03:00,35.5,21.3,29.90,NNW,338,1.8,11.2,56,0.00,,,0.04,WUHU216HW,2013-03-19 22:03:00,
2013-03-19 18:08:00,35.3,21.6,29.90,NW,315,1.8,7.8,57,0.00,,,0.04,WUHU216HW,2013-03-19 22:08:00,
2013-03-19 18:13:00,34.9,21.3,29.91,West,270,3.8,4.9,57,0.00,,,0.04,WUHU216HW,2013-03-19 22:13:00,
2013-03-19 18:18:00,34.9,21.3,29.91,SW,225,2.9,8.1,57,0.00,,,0.04,WUHU216HW,2013-03-19 22:18:00,
2013-03-19 18:23:00,34.7,21.1,29.91,West,270,4.9,12.5,57,0.00,,,0.04,WUHU216HW,2013-03-19 22:23:00,
2013-03-19 18:28:00,34.6,21.2,29.91,SW,225,6.0,12.5,58,0.00,,,0.04,WUHU216HW,2013-03-19 22:28:00,
2013-03-19 18:33:00,34.6,21.7,29.91,West,270,3.8,6.9,59,0.00,,,0.04,WUHU216HW,2013-03-19 22:33:00,
2013-03-19 18:38:00,34.6,21.7,29.91,West,270,3.6,6.9,59,0.00,,,0.04,WUHU216HW,2013-03-19 22:38:00,
2013-03-19 18:43:00,34.4,21.1,29.91,West,270,6.3,6.9,58,0.00,,,0.04,WUHU216HW,2013-03-19 22:43:00,
2013-03-19 18:48:00,34.6,21.7,29.92,SSW,203,1.6,6.9,59,0.00,,,0.04,WUHU216HW,2013-03-19 22:48:00,
2013-03-19 18:53:00,34.4,21.5,29.91,NW,315,6.3,7.8,59,0.00,,,0.04,WUHU216HW,2013-03-19 22:53:00,
2013-03-19 18:58:00,34.2,21.3,29.91,WNW,293,3.4,7.8,59,0.00,,,0.04,WUHU216HW,2013-03-19 22:58:00,
2013-03-19 19:03:00,34.2,20.9,29.91,NW,315,3.4,6.3,58,0.00,,,0.04,WUHU216HW,2013-03-19 23:03:00,
2013-03-19 19:08:00,34.4,20.7,29.91,NNW,338,9.6,9.6,57,0.00,,,0.04,WUHU216HW,2013-03-19 23:08:00,
2013-03-19 19:13:00,34.4,20.3,29.92,West,270,1.3,9.6,56,0.00,,,0.04,WUHU216HW,2013-03-19 23:13:00,
2013-03-19 19:18:00,34.4,20.3,29.92,NNW,338,1.6,6.3,56,0.00,,,0.04,WUHU216HW,2013-03-19 23:18:00,
2013-03-19 19:23:00,34.6,20.4,29.91,WNW,293,3.1,6.9,56,0.00,,,0.04,WUHU216HW,2013-03-19 23:23:00,
2013-03-19 19:28:00,34.6,20.0,29.92,West,270,5.4,6.9,55,0.00,,,0.04,WUHU216HW,2013-03-19 23:28:00,
2013-03-19 19:33:00,34.4,19.4,29.92,North,0,2.5,10.1,54,0.00,,,0.04,WUHU216HW,2013-03-19 23:33:00,
2013-03-19 19:38:00,34.4,18.9,29.92,WNW,293,1.8,13.4,53,0.00,,,0.04,WUHU216HW,2013-03-19 23:38:00,
2013-03-19 19:43:00,34.4,18.9,29.93,WSW,248,4.0,13.4,53,0.00,,,0.04,WUHU216HW,2013-03-19 23:43:00,
2013-03-19 19:48:00,34.4,18.6,29.93,WNW,293,2.7,11.2,52,0.00,,,0.04,WUHU216HW,2013-03-19 23:48:00,
2013-03-19 19:53:00,34.2,18.4,29.93,WNW,293,3.4,11.2,52,0.00,,,0.04,WUHU216HW,2013-03-19 23:53:00,
2013-03-19 19:58:00,34.2,18.4,29.93,NW,315,10.3,10.3,52,0.00,,,0.04,WUHU216HW,2013-03-19 23:58:00,
2013-03-19 20:03:00,33.7,18.3,29.93,West,270,1.6,13.0,53,0.00,,,0.04,WUHU216HW,2013-03-20 00:03:00,
2013-03-19 20:08:00,33.5,18.9,29.94,West,270,6.5,13.0,55,0.00,,,0.04,WUHU216HW,2013-03-20 00:08:00,
2013-03-19 20:13:00,33.3,18.8,29.94,North,0,4.0,10.5,55,0.00,,,0.04,WUHU216HW,2013-03-20 00:13:00,
2013-03-19 20:18:00,33.1,19.1,29.94,NW,315,5.4,10.5,56,0.00,,,0.04,WUHU216HW,2013-03-20 00:18:00,
2013-03-19 20:23:00,32.9,18.9,29.94,WNW,293,1.8,7.6,56,0.00,,,0.04,WUHU216HW,2013-03-20 00:23:00,
2013-03-19 20:28:00,32.8,18.7,29.94,WNW,293,2.9,7.6,56,0.00,,,0.04,WUHU216HW,2013-03-20 00:28:00,
2013-03-19 20:33:00,32.8,19.2,29.94,West,270,5.1,9.2,57,0.00,,,0.04,WUHU216HW,2013-03-20 00:33:00,
2013-03-19 20:38:00,32.6,19.0,29.95,SW,225,8.3,9.2,57,0.00,,,0.04,WUHU216HW,2013-03-20 00:38:00,
2013-03-19 20:43:00,32.6,19.0,29.95,WNW,293,6.3,8.3,57,0.00,,,0.04,WUHU216HW,2013-03-20 00:43:00,
2013-03-19 20:48:00,32.4,18.8,29.95,NNW,338,2.2,8.3,57,0.00,,,0.04,WUHU216HW,2013-03-20 00:48:00,
2013-03-19 20:53:00,32.4,18.8,29.96,WSW,248,0.9,6.9,57,0.00,,,0.04,WUHU216HW,2013-03-20 00:53:00,
2013-03-19 20:58:00,32.2,18.3,29.95,NW,315,4.0,8.7,56,0.00,,,0.04,WUHU216HW,2013-03-20 00:58:00,
2013-03-19 21:03:00,32.2,18.6,29.96,WNW,293,0.7,8.7,57,0.00,,,0.04,WUHU216HW,2013-03-20 01:03:00,
2013-03-19 21:08:00,32.0,18.6,29.96,WNW,293,5.4,6.3,57,0.00,,,0.04,WUHU216HW,2013-03-20 01:08:00,
2013-03-19 21:13:00,32.0,18.6,29.96,WNW,293,1.1,5.6,57,0.00,,,0.04,WUHU216HW,2013-03-20 01:13:00,
2013-03-19 21:18:00,32.0,18.1,29.96,NW,315,1.8,5.1,56,0.00,,,0.04,WUHU216HW,2013-03-20 01:18:00,
2013-03-19 21:23:00,31.9,17.5,29.96,WSW,248,5.6,6.3,55,0.00,,,0.04,WUHU216HW,2013-03-20 01:23:00,
2013-03-19 21:28:00,32.0,17.2,29.96,West,270,4.7,8.7,54,0.00,,,0.04,WUHU216HW,2013-03-20 01:28:00,
2013-03-19 21:33:00,31.9,17.5,29.96,West,270,0.4,8.7,55,0.00,,,0.04,WUHU216HW,2013-03-20 01:33:00,
2013-03-19 21:38:00,31.7,17.3,29.96,West,270,8.1,8.1,55,0.00,,,0.04,WUHU216HW,2013-03-20 01:38:00,
2013-03-19 21:43:00,31.7,16.8,29.97,West,270,5.4,8.1,54,0.00,,,0.04,WUHU216HW,2013-03-20 01:43:00,
2013-03-19 21:48:00,31.7,16.8,29.97,WSW,248,2.5,8.1,54,0.00,,,0.04,WUHU216HW,2013-03-20 01:48:00,
2013-03-19 21:53:00,31.5,17.1,29.97,SSW,203,2.5,6.3,55,0.00,,,0.04,WUHU216HW,2013-03-20 01:53:00,
2013-03-19 21:58:00,31.5,17.1,29.97,West,270,0.4,8.3,55,0.00,,,0.04,WUHU216HW,2013-03-20 01:58:00,
2013-03-19 22:03:00,31.3,16.9,29.97,NNW,338,2.5,8.3,55,0.00,,,0.04,WUHU216HW,2013-03-20 02:03:00,
2013-03-19 22:08:00,31.3,16.9,29.97,NW,315,0.9,6.5,55,0.00,,,0.04,WUHU216HW,2013-03-20 02:08:00,
2013-03-19 22:13:00,31.3,16.9,29.97,NW,315,0.4,5.8,55,0.00,,,0.04,WUHU216HW,2013-03-20 02:13:00,
2013-03-19 22:18:00,31.1,17.2,29.98,WSW,248,0.9,4.7,56,0.00,,,0.04,WUHU216HW,2013-03-20 02:18:00,
2013-03-19 22:23:00,31.1,17.2,29.98,WSW,248,2.0,5.4,56,0.00,,,0.04,WUHU216HW,2013-03-20 02:23:00,
2013-03-19 22:28:00,31.1,17.7,29.98,South,180,0.7,5.4,57,0.00,,,0.04,WUHU216HW,2013-03-20 02:28:00,
2013-03-19 22:33:00,31.0,17.5,29.98,WSW,248,5.4,5.4,57,0.00,,,0.04,WUHU216HW,2013-03-20 02:33:00,
2013-03-19 22:38:00,31.0,17.5,29.98,NNW,338,2.2,5.4,57,0.00,,,0.04,WUHU216HW,2013-03-20 02:38:00,
2013-03-19 22:43:00,31.0,17.5,29.98,WSW,248,1.3,6.3,57,0.00,,,0.04,WUHU216HW,2013-03-20 02:43:00,
2013-03-19 22:48:00,31.0,17.9,29.98,West,270,0.9,6.3,58,0.00,,,0.04,WUHU216HW,2013-03-20 02:48:00,
2013-03-19 22:53:00,30.8,17.7,29.98,WSW,248,0.2,3.8,58,0.00,,,0.04,WUHU216HW,2013-03-20 02:53:00,
2013-03-19 22:58:00,30.6,17.6,29.98,West,270,1.6,4.5,58,0.00,,,0.04,WUHU216HW,2013-03-20 02:58:00,
2013-03-19 23:03:00,30.6,17.9,29.98,West,270,0.7,5.6,59,0.00,,,0.04,WUHU216HW,2013-03-20 03:03:00,
2013-03-19 23:08:00,30.6,17.9,29.98,West,270,3.6,5.6,59,0.00,,,0.04,WUHU216HW,2013-03-20 03:08:00,
2013-03-19 23:13:00,30.6,17.9,29.98,West,270,0.7,6.3,59,0.00,,,0.04,WUHU216HW,2013-03-20 03:13:00,
2013-03-19 23:18:00,30.6,17.9,29.98,SW,225,1.8,6.3,59,0.00,,,0.04,WUHU216HW,2013-03-20 03:18:00,
2013-03-19 23:23:00,30.6,18.4,29.98,WNW,293,1.1,3.6,60,0.00,,,0.04,WUHU216HW,2013-03-20 03:23:00,
2013-03-19 23:28:00,30.6,18.4,29.98,North,0,0.7,3.6,60,0.00,,,0.04,WUHU216HW,2013-03-20 03:28:00,
2013-03-19 23:33:00,30.4,18.2,29.98,WSW,248,0.0,3.6,60,0.00,,,0.04,WUHU216HW,2013-03-20 03:33:00,
2013-03-19 23:38:00,30.2,18.0,29.97,West,270,2.9,4.0,60,0.00,,,0.04,WUHU216HW,2013-03-20 03:38:00,
2013-03-19 23:43:00,30.2,18.0,29.98,West,270,1.8,4.0,60,0.00,,,0.04,WUHU216HW,2013-03-20 03:43:00,
2013-03-19 23:48:00,30.2,18.0,29.98,SSW,203,0.0,3.4,60,0.00,,,0.04,WUHU216HW,2013-03-20 03:48:00,
2013-03-19 23:53:00,30.2,18.4,29.98,WSW,248,2.2,2.2,61,0.00,,,0.04,WUHU216HW,2013-03-20 03:53:00,
2013-03-19 23:58:00,30.2,18.4,29.98,West,270,0.7,3.6,61,0.00,,,0.04,WUHU216HW,2013-03-20 03:58:00,